createdAt,value
2022-11-14T00:00:47.212Z,19.60
2022-11-14T00:03:32.636Z,26.07
2022-11-14T00:06:17.609Z,27.00
2022-11-14T00:09:03.391Z,22.27
2022-11-14T00:11:48.845Z,33.23
2022-11-14T00:14:34.181Z,23.40
2022-11-14T00:17:19.324Z,27.97
2022-11-14T00:20:06.814Z,21.20
2022-11-14T00:22:52.359Z,21.50
2022-11-14T00:25:38.189Z,24.50
2022-11-14T00:28:23.394Z,23.63
2022-11-14T00:31:10.327Z,31.23
2022-11-14T00:33:55.887Z,30.60
2022-11-14T00:36:40.958Z,33.43
2022-11-14T00:39:26.369Z,45.00
2022-11-14T00:42:11.606Z,31.67
2022-11-14T00:44:56.797Z,29.40
2022-11-14T00:47:42.280Z,27.30
2022-11-14T00:50:27.457Z,28.50
2022-11-14T00:53:13.298Z,25.03
2022-11-14T00:55:58.906Z,37.33
2022-11-14T00:58:44.992Z,24.63
2022-11-14T01:01:30.198Z,25.53
2022-11-14T01:04:15.421Z,21.83
2022-11-14T01:07:00.764Z,28.73
2022-11-14T01:09:45.886Z,21.67
2022-11-14T01:12:31.069Z,24.27
2022-11-14T01:15:16.555Z,19.80
2022-11-14T01:18:01.656Z,20.10
2022-11-14T01:20:48.025Z,22.60
2022-11-14T01:23:33.320Z,20.50
2022-11-14T01:26:18.451Z,20.63
2022-11-14T01:29:03.549Z,21.77
2022-11-14T01:31:49.449Z,20.33
2022-11-14T01:34:34.644Z,18.50
2022-11-14T01:37:21.017Z,18.83
2022-11-14T01:40:06.897Z,18.97
2022-11-14T01:43:18.665Z,19.87
2022-11-14T01:46:14.659Z,18.93
2022-11-14T01:49:24.082Z,18.73
2022-11-14T01:52:19.831Z,20.43
2022-11-14T01:55:08.108Z,16.70
2022-11-14T01:57:53.642Z,21.10
2022-11-14T02:00:39.410Z,20.10
2022-11-14T02:03:25.071Z,18.93
2022-11-14T02:06:14.799Z,18.13
2022-11-14T02:09:04.437Z,16.50
2022-11-14T02:11:51.914Z,19.23
2022-11-14T02:14:38.543Z,16.97
2022-11-14T02:17:30.015Z,17.77
2022-11-14T02:20:24.807Z,16.73
2022-11-14T02:23:12.332Z,19.03
2022-11-14T02:25:58.124Z,19.40
2022-11-14T02:28:43.156Z,18.67
2022-11-14T02:31:28.629Z,17.60
2022-11-14T02:34:16.678Z,17.77
2022-11-14T02:37:02.023Z,15.20
2022-11-14T02:39:48.230Z,17.70
2022-11-14T02:42:33.789Z,17.10
2022-11-14T02:45:21.020Z,18.37
2022-11-14T02:48:06.595Z,21.40
2022-11-14T02:50:52.063Z,17.93
2022-11-14T02:53:37.326Z,18.20
2022-11-14T02:56:25.177Z,22.13
2022-11-14T02:59:10.332Z,18.33
2022-11-14T03:01:55.722Z,20.07
2022-11-14T03:04:40.884Z,16.90
2022-11-14T03:07:26.241Z,17.90
2022-11-14T03:10:12.014Z,16.33
2022-11-14T03:12:58.138Z,19.20
2022-11-14T03:15:43.483Z,18.00
2022-11-14T03:18:29.262Z,16.73
2022-11-14T03:21:20.261Z,13.93
2022-11-14T03:24:06.005Z,12.47
2022-11-14T03:26:51.336Z,12.90
2022-11-14T03:29:36.616Z,13.47
2022-11-14T03:32:21.733Z,12.90
2022-11-14T03:35:07.564Z,13.33
2022-11-14T03:37:56.398Z,12.70
2022-11-14T03:40:44.742Z,14.40
2022-11-14T03:43:32.956Z,13.37
2022-11-14T03:46:18.168Z,12.50
2022-11-14T03:49:04.123Z,15.23
2022-11-14T03:51:50.566Z,14.17
2022-11-14T03:54:35.559Z,16.23
2022-11-14T03:57:20.673Z,13.40
2022-11-14T04:00:11.818Z,14.37
2022-11-14T04:02:57.564Z,20.87
2022-11-14T04:05:46.282Z,15.60
2022-11-14T04:08:32.862Z,15.73
2022-11-14T04:11:19.183Z,15.77
2022-11-14T04:14:04.921Z,17.80
2022-11-14T04:16:50.292Z,14.80
2022-11-14T04:19:35.348Z,14.23
2022-11-14T04:22:20.672Z,13.70
2022-11-14T04:25:07.588Z,13.47
2022-11-14T04:27:52.934Z,12.23
2022-11-14T04:30:38.843Z,14.97
2022-11-14T04:33:23.952Z,12.83
2022-11-14T04:36:12.173Z,13.30
2022-11-14T04:38:57.665Z,14.50
2022-11-14T04:41:43.118Z,14.40
2022-11-14T04:44:28.359Z,10.97
2022-11-14T04:47:13.392Z,12.17
2022-11-14T04:49:58.944Z,12.53
2022-11-14T04:52:44.141Z,13.03
2022-11-14T04:55:29.474Z,14.87
2022-11-14T04:58:14.848Z,13.90
2022-11-14T05:01:00.572Z,14.17
2022-11-14T05:03:46.201Z,15.20
2022-11-14T05:06:31.613Z,13.77
2022-11-14T05:09:17.016Z,18.77
2022-11-14T05:12:03.801Z,15.53
2022-11-14T05:14:49.109Z,14.30
2022-11-14T05:17:35.005Z,15.20
2022-11-14T05:20:20.357Z,11.60
2022-11-14T05:23:05.796Z,15.37
2022-11-14T05:26:01.906Z,14.00
2022-11-14T05:28:47.201Z,14.93
2022-11-14T05:31:32.636Z,15.30
2022-11-14T05:34:17.867Z,15.77
2022-11-14T05:37:04.057Z,14.73
2022-11-14T05:39:49.265Z,14.13
2022-11-14T05:42:34.863Z,14.10
2022-11-14T05:45:20.313Z,15.57
2022-11-14T05:48:06.002Z,16.40
2022-11-14T05:50:55.975Z,18.50
2022-11-14T05:53:41.549Z,13.67
2022-11-14T05:56:27.892Z,16.20
2022-11-14T05:59:13.617Z,16.07
2022-11-14T06:01:58.991Z,16.27
2022-11-14T06:04:44.287Z,17.40
2022-11-14T06:07:31.178Z,14.23
2022-11-14T06:10:16.852Z,17.03
2022-11-14T06:13:02.932Z,14.67
2022-11-14T06:15:48.015Z,16.23
2022-11-14T06:18:34.222Z,12.13
2022-11-14T06:21:21.705Z,17.60
2022-11-14T06:24:09.570Z,14.10
2022-11-14T06:26:54.704Z,15.37
2022-11-14T06:29:40.071Z,19.47
2022-11-14T06:32:25.586Z,13.90
2022-11-14T06:35:11.085Z,16.97
2022-11-14T06:37:56.639Z,11.83
2022-11-14T06:40:41.788Z,14.83
2022-11-14T06:43:29.649Z,13.93
2022-11-14T06:46:18.208Z,15.60
2022-11-14T06:49:03.668Z,14.63
2022-11-14T06:51:49.081Z,18.00
2022-11-14T06:54:34.364Z,16.33
2022-11-14T06:57:19.663Z,19.30
2022-11-14T07:00:05.739Z,16.03
2022-11-14T07:02:51.121Z,16.63
2022-11-14T07:05:36.520Z,12.23
2022-11-14T07:08:22.089Z,11.57
2022-11-14T07:11:12.599Z,23.27
2022-11-14T07:14:03.622Z,11.10
2022-11-14T07:16:49.467Z,11.87
2022-11-14T07:19:34.969Z,10.67
2022-11-14T07:22:20.479Z,19.70
2022-11-14T07:25:06.536Z,12.60
2022-11-14T07:27:51.624Z,12.13
2022-11-14T07:30:37.072Z,9.80
2022-11-14T07:33:22.492Z,11.27
2022-11-14T07:36:09.084Z,9.87
2022-11-14T07:38:54.605Z,24.40
2022-11-14T07:41:40.843Z,17.23
2022-11-14T07:44:27.160Z,11.47
2022-11-14T07:47:12.404Z,10.83
2022-11-14T07:49:57.648Z,11.93
2022-11-14T07:52:50.472Z,14.13
2022-11-14T07:55:36.925Z,11.77
2022-11-14T07:58:22.441Z,12.43
2022-11-14T08:01:09.954Z,12.73
2022-11-14T08:03:55.208Z,18.93
2022-11-14T08:06:40.403Z,13.40
2022-11-14T08:09:26.187Z,16.03
2022-11-14T08:12:13.304Z,13.30
2022-11-14T08:14:58.563Z,15.60
2022-11-14T08:17:44.164Z,11.10
2022-11-14T08:20:29.744Z,12.70
2022-11-14T08:23:17.623Z,11.73
2022-11-14T08:26:02.980Z,12.37
2022-11-14T08:28:48.347Z,11.97
2022-11-14T08:31:33.650Z,10.00
2022-11-14T08:34:18.976Z,13.03
2022-11-14T08:37:04.517Z,13.83
2022-11-14T08:39:49.909Z,11.93
2022-11-14T08:42:35.296Z,10.73
2022-11-14T08:45:20.415Z,15.40
2022-11-14T08:48:06.232Z,13.67
2022-11-14T08:50:51.607Z,11.83
2022-11-14T08:53:49.264Z,11.77
2022-11-14T08:56:34.820Z,10.57
2022-11-14T08:59:20.260Z,17.87
2022-11-14T09:02:05.473Z,12.30
2022-11-14T09:04:50.970Z,11.20
2022-11-14T09:07:37.167Z,12.30
2022-11-14T09:10:22.560Z,14.13
2022-11-14T09:13:07.999Z,11.97
2022-11-14T09:15:53.347Z,11.77
2022-11-14T09:18:38.705Z,11.77
2022-11-14T09:21:24.839Z,14.00
2022-11-14T09:24:10.297Z,14.70
2022-11-14T09:26:57.189Z,12.23
2022-11-14T09:29:42.775Z,14.13
2022-11-14T09:32:30.784Z,15.70
2022-11-14T09:35:16.540Z,9.80
2022-11-14T09:38:04.674Z,11.57
2022-11-14T09:40:49.961Z,13.30
2022-11-14T09:44:10.016Z,11.33
2022-11-14T09:47:03.012Z,12.83
2022-11-14T09:49:51.513Z,13.37
2022-11-14T09:52:40.456Z,11.53
2022-11-14T09:55:37.265Z,9.70
2022-11-14T09:58:23.247Z,11.20
2022-11-14T10:01:45.925Z,10.57
2022-11-14T10:05:02.506Z,14.97
2022-11-14T10:08:02.312Z,10.47
2022-11-14T10:10:55.961Z,13.53
2022-11-14T10:14:08.040Z,18.77
2022-11-14T10:17:12.201Z,15.37
2022-11-14T10:20:20.272Z,23.83
2022-11-14T10:23:24.218Z,36.33
2022-11-14T10:26:23.302Z,18.50
2022-11-14T10:29:40.763Z,20.67
2022-11-14T10:32:46.714Z,12.93
2022-11-14T10:35:39.447Z,31.67
2022-11-14T10:38:32.163Z,20.60
2022-11-14T10:41:41.935Z,25.70
2022-11-14T10:44:30.969Z,14.63
2022-11-14T10:47:21.489Z,12.40
2022-11-14T10:50:25.634Z,14.10
2022-11-14T10:53:24.871Z,13.17
2022-11-14T10:56:15.263Z,13.47
2022-11-14T10:59:00.504Z,12.63
2022-11-14T11:01:54.737Z,10.50
2022-11-14T11:04:43.878Z,15.10
2022-11-14T11:07:48.588Z,28.73
2022-11-14T11:10:57.701Z,15.10
2022-11-14T11:13:55.649Z,10.97
2022-11-14T11:16:42.261Z,14.30
2022-11-14T11:19:28.041Z,11.20
2022-11-14T11:22:27.549Z,12.93
2022-11-14T11:25:33.011Z,9.83
2022-11-14T11:28:26.940Z,22.10
2022-11-14T11:31:12.365Z,17.30
2022-11-14T11:34:03.287Z,12.67
2022-11-14T11:36:58.567Z,8.67
2022-11-14T11:39:57.903Z,16.10
2022-11-14T11:45:55.601Z,13.77
2022-11-14T11:48:41.077Z,7.40
2022-11-14T11:51:27.313Z,8.73
2022-11-14T11:54:19.562Z,6.23
2022-11-14T11:57:21.726Z,8.77
2022-11-14T12:00:16.756Z,11.13
2022-11-14T12:03:02.407Z,9.67
2022-11-14T12:05:57.029Z,9.63
2022-11-14T12:09:10.055Z,11.50
2022-11-14T12:12:01.375Z,10.80
2022-11-14T12:15:11.403Z,19.57
2022-11-14T12:18:15.860Z,15.33
2022-11-14T12:21:32.425Z,16.60
2022-11-14T12:24:47.507Z,18.07
2022-11-14T12:28:04.294Z,16.10
2022-11-14T12:30:53.568Z,14.03
2022-11-14T12:33:47.602Z,9.93
2022-11-14T12:36:34.909Z,9.97
2022-11-14T12:39:30.142Z,7.67
2022-11-14T12:42:20.726Z,10.03
2022-11-14T12:45:40.258Z,16.57
2022-11-14T12:48:25.277Z,9.10
2022-11-14T12:51:25.525Z,14.40
2022-11-14T12:54:42.856Z,14.50
2022-11-14T12:57:57.382Z,9.90
2022-11-14T13:00:45.516Z,9.20
2022-11-14T13:03:59.592Z,10.63
2022-11-14T13:07:29.773Z,12.30
2022-11-14T13:10:44.609Z,11.93
2022-11-14T13:13:48.444Z,8.27
2022-11-14T13:16:52.352Z,7.73
2022-11-14T13:20:05.090Z,10.50
2022-11-14T13:22:50.335Z,13.13
2022-11-14T13:25:35.765Z,7.73
2022-11-14T13:28:45.439Z,9.93
2022-11-14T13:31:50.035Z,7.10
2022-11-14T13:34:54.394Z,7.87
2022-11-14T13:37:48.403Z,9.97
2022-11-14T13:40:59.452Z,8.47
2022-11-14T13:43:53.605Z,13.53
2022-11-14T13:46:50.613Z,7.73
2022-11-14T13:49:59.221Z,6.27
2022-11-14T13:52:47.716Z,10.73
2022-11-14T13:55:45.229Z,12.57
2022-11-14T13:59:21.060Z,9.53
2022-11-14T14:02:52.099Z,12.10
2022-11-14T14:06:12.740Z,10.70
2022-11-14T14:08:57.708Z,12.00
2022-11-14T14:12:15.387Z,14.10
2022-11-14T14:15:38.070Z,13.87
2022-11-14T14:18:40.510Z,16.43
2022-11-14T14:21:40.389Z,19.30
2022-11-14T14:24:28.143Z,12.60
2022-11-14T14:27:24.009Z,12.40
2022-11-14T14:30:14.620Z,15.13
2022-11-14T14:33:14.464Z,16.00
2022-11-14T14:35:59.783Z,11.90
2022-11-14T14:38:45.729Z,14.83
2022-11-14T14:41:32.377Z,18.73
2022-11-14T14:44:19.711Z,10.53
2022-11-14T14:47:43.772Z,7.67
2022-11-14T14:50:40.771Z,8.93
2022-11-14T14:53:34.958Z,10.90
2022-11-14T14:56:22.709Z,15.00
2022-11-14T14:59:19.675Z,12.27
2022-11-14T15:02:16.329Z,12.17
2022-11-14T15:05:02.797Z,16.43
2022-11-14T15:07:50.013Z,15.73
2022-11-14T15:10:35.412Z,10.93
2022-11-14T15:13:22.820Z,10.17
2022-11-14T15:16:09.211Z,10.63
2022-11-14T15:18:56.604Z,12.40
2022-11-14T15:21:43.188Z,11.53
2022-11-14T15:24:28.372Z,11.17
2022-11-14T15:27:19.224Z,11.73
2022-11-14T15:30:07.402Z,18.90
2022-11-14T15:32:55.014Z,13.93
2022-11-14T15:35:41.591Z,10.97
2022-11-14T15:41:35.825Z,15.27
2022-11-14T15:44:34.405Z,17.93
2022-11-14T15:47:25.583Z,24.37
2022-11-14T15:50:13.888Z,17.13
2022-11-14T15:53:14.576Z,26.07
2022-11-14T15:55:59.558Z,16.67
2022-11-14T15:58:49.375Z,10.83
2022-11-14T16:01:37.645Z,15.47
2022-11-14T16:04:32.177Z,10.90
2022-11-14T16:07:18.103Z,13.30
2022-11-14T16:10:03.573Z,10.33
2022-11-14T16:12:52.392Z,8.13
2022-11-14T16:15:38.479Z,12.83
2022-11-14T16:18:23.945Z,11.67
2022-11-14T16:21:16.784Z,13.50
2022-11-14T16:24:01.942Z,35.83
2022-11-14T16:26:50.392Z,11.63
2022-11-14T16:29:35.563Z,13.83
2022-11-14T16:32:23.263Z,10.10
2022-11-14T16:35:29.125Z,9.87
2022-11-14T16:38:14.994Z,12.20
2022-11-14T16:41:02.776Z,9.57
2022-11-14T16:43:47.885Z,8.30
2022-11-14T16:46:33.215Z,9.07
2022-11-14T16:49:19.890Z,8.60
2022-11-14T16:52:08.390Z,7.90
2022-11-14T16:54:54.497Z,7.50
2022-11-14T16:57:40.657Z,11.37
2022-11-14T17:00:27.577Z,12.47
2022-11-14T17:03:13.059Z,8.30
2022-11-14T17:05:58.320Z,10.90
2022-11-14T17:08:43.783Z,13.10
2022-11-14T17:11:28.926Z,9.07
2022-11-14T17:14:14.534Z,12.43
2022-11-14T17:17:02.691Z,10.90
2022-11-14T17:19:48.230Z,9.97
2022-11-14T17:22:33.542Z,9.13
2022-11-14T17:25:19.035Z,11.53
2022-11-14T17:28:04.420Z,6.70
2022-11-14T17:30:50.768Z,10.30
2022-11-14T17:33:36.867Z,10.43
2022-11-14T17:36:23.250Z,8.80
2022-11-14T17:39:08.721Z,11.20
2022-11-14T17:41:54.166Z,8.63
2022-11-14T17:44:39.736Z,10.27
2022-11-14T17:47:24.828Z,8.47
2022-11-14T17:50:10.629Z,8.17
2022-11-14T17:52:55.867Z,8.57
2022-11-14T17:55:41.053Z,7.97
2022-11-14T17:58:30.740Z,9.30
2022-11-14T18:01:19.170Z,9.33
2022-11-14T18:04:06.340Z,10.30
2022-11-14T18:06:52.873Z,10.33
2022-11-14T18:09:39.706Z,8.40
2022-11-14T18:12:24.881Z,11.83
2022-11-14T18:15:10.307Z,6.23
2022-11-14T18:17:55.864Z,9.33
2022-11-14T18:20:41.051Z,13.83
2022-11-14T18:23:26.242Z,8.57
2022-11-14T18:26:16.788Z,11.57
2022-11-14T18:29:02.265Z,13.53
2022-11-14T18:31:48.231Z,22.83
2022-11-14T18:34:33.232Z,13.53
2022-11-14T18:37:18.347Z,14.60
2022-11-14T18:40:04.144Z,7.57
2022-11-14T18:42:49.250Z,10.70
2022-11-14T18:45:34.922Z,7.90
2022-11-14T18:48:20.152Z,9.87
2022-11-14T18:51:12.322Z,11.63
2022-11-14T18:53:59.294Z,8.83
2022-11-14T18:56:45.213Z,12.40
2022-11-14T18:59:30.333Z,7.43
2022-11-14T19:02:15.530Z,7.57
2022-11-14T19:05:01.071Z,10.97
2022-11-14T19:07:47.011Z,8.77
2022-11-14T19:10:32.420Z,8.07
2022-11-14T19:13:17.527Z,7.60
2022-11-14T19:16:07.655Z,11.23
2022-11-14T19:18:54.598Z,9.60
2022-11-14T19:21:40.631Z,16.80
2022-11-14T19:24:27.194Z,8.97
2022-11-14T19:27:13.942Z,9.53
2022-11-14T19:29:58.924Z,13.33
2022-11-14T19:32:44.343Z,8.50
2022-11-14T19:35:29.562Z,17.17
2022-11-14T19:38:14.719Z,12.30
2022-11-14T19:41:09.057Z,9.93
2022-11-14T19:43:55.512Z,17.83
2022-11-14T19:46:44.340Z,10.57
2022-11-14T19:49:32.845Z,13.60
2022-11-14T19:52:18.438Z,9.80
2022-11-14T19:55:04.046Z,7.37
2022-11-14T19:57:49.403Z,10.33
2022-11-14T20:00:34.531Z,11.27
2022-11-14T20:03:21.678Z,11.90
2022-11-14T20:06:18.247Z,9.00
2022-11-14T20:09:08.767Z,8.03
2022-11-14T20:11:53.848Z,13.57
2022-11-14T20:14:39.007Z,11.33
2022-11-14T20:17:24.263Z,12.47
2022-11-14T20:20:10.839Z,9.90
2022-11-14T20:22:56.214Z,9.23
2022-11-14T20:25:41.592Z,10.93
2022-11-14T20:28:27.024Z,8.30
2022-11-14T20:31:17.758Z,9.93
2022-11-14T20:34:02.741Z,8.57
2022-11-14T20:39:54.085Z,12.63
2022-11-14T20:42:39.323Z,8.47
2022-11-14T20:45:25.212Z,8.10
2022-11-14T20:48:12.425Z,8.23
2022-11-14T20:51:10.485Z,12.17
2022-11-14T20:53:56.140Z,11.13
2022-11-14T20:56:41.598Z,10.67
2022-11-14T20:59:27.173Z,18.77
2022-11-14T21:02:13.122Z,21.13
2022-11-14T21:04:59.306Z,9.50
2022-11-14T21:07:44.738Z,9.07
2022-11-14T21:10:47.797Z,13.47
2022-11-14T21:13:56.368Z,11.23
2022-11-14T21:16:41.824Z,11.13
2022-11-14T21:19:29.221Z,11.17
2022-11-14T21:22:14.756Z,12.30
2022-11-14T21:25:01.744Z,13.33
2022-11-14T21:27:46.958Z,14.97
2022-11-14T21:30:32.872Z,11.47
2022-11-14T21:33:18.193Z,14.70
2022-11-14T21:36:37.659Z,10.63
2022-11-14T21:39:16.863Z,8.03
2022-11-14T21:42:02.955Z,12.90
2022-11-14T21:44:48.120Z,11.40
2022-11-14T21:47:33.637Z,13.37
2022-11-14T21:50:18.876Z,12.70
2022-11-14T21:53:15.612Z,7.87
2022-11-14T21:56:12.810Z,16.90
2022-11-14T21:59:15.311Z,8.23
2022-11-14T22:02:21.450Z,11.13
2022-11-14T22:05:06.940Z,5.73
2022-11-14T22:07:52.093Z,12.13
2022-11-14T22:10:37.210Z,6.93
2022-11-14T22:13:22.505Z,5.57
2022-11-14T22:16:09.126Z,7.47
2022-11-14T22:18:56.299Z,10.50
2022-11-14T22:21:43.565Z,11.03
2022-11-14T22:24:28.948Z,8.10
2022-11-14T22:27:14.153Z,4.90
2022-11-14T22:29:59.246Z,6.57
2022-11-14T22:32:44.755Z,5.60
2022-11-14T22:35:37.578Z,11.17
2022-11-14T22:38:22.927Z,8.33
2022-11-14T22:41:12.425Z,6.27
2022-11-14T22:43:58.593Z,5.27
2022-11-14T22:46:44.328Z,8.17
2022-11-14T22:49:29.877Z,7.87
2022-11-14T22:52:15.462Z,7.20
2022-11-14T22:55:01.197Z,7.87
2022-11-14T22:57:47.753Z,5.73
2022-11-14T23:00:34.219Z,7.07
2022-11-14T23:03:20.865Z,6.80
2022-11-14T23:06:11.108Z,8.43
2022-11-14T23:08:56.762Z,6.70
2022-11-14T23:11:42.426Z,5.73
2022-11-14T23:14:27.578Z,9.93
2022-11-14T23:17:12.970Z,7.07
2022-11-14T23:19:58.195Z,6.90
2022-11-14T23:22:43.447Z,6.33
2022-11-14T23:25:28.994Z,10.97
2022-11-14T23:28:14.389Z,12.00
2022-11-14T23:31:01.952Z,7.90
2022-11-14T23:33:53.017Z,8.27
2022-11-14T23:36:38.198Z,7.00
2022-11-14T23:39:23.310Z,8.27
2022-11-14T23:42:08.639Z,7.60
2022-11-14T23:44:54.059Z,11.00
2022-11-14T23:47:39.465Z,11.77
2022-11-14T23:50:25.015Z,8.23
2022-11-14T23:53:11.516Z,17.40
2022-11-14T23:55:59.443Z,11.60
2022-11-14T23:58:44.683Z,21.67
